Stations météo

réclame
Mon MeteoGroup
Ploudalmezeau, France (7101): Température de l'air & dewpoint: 11.02.2020 21:00:00 - 17.02.2020 21:00:00 (CET)Ploudalmezeau, France (7101): Vitesse du vent & gusts: 11.02.2020 21:00:00 - 17.02.2020 21:00:00 (CET)Ploudalmezeau, France (7101): Direction du vent: 11.02.2020 21:00:00 - 17.02.2020 21:00:00 (CET)Ploudalmezeau, France (7101): reduced air pressure: 11.02.2020 21:00:00 - 17.02.2020 21:00:00 (CET)Ploudalmezeau, France (7101): Quantités de précipitations: 11.02.2020 21:00:00 - 17.02.2020 21:00:00 (CET)
Date & Time tt [°C] td [°C] ff [km/h] ff [knt] fx [km/h] fx [knt] dd ppp [hPa] rr [mm]
17.02.2020 21:00:00 7,9 2,6 31 17 - - W 1025,5 0,2
17.02.2020 20:00:00 7,3 3,0 27 14 - - W 1024,8 0,2
17.02.2020 19:00:00 8,2 3,8 31 17 - - WNW 1023,4 0,0
17.02.2020 18:00:00 8,1 3,4 31 17 - - WNW 1022,5 0,0
17.02.2020 17:00:00 9,3 3,5 34 18 - - W 1021,5 0,0
17.02.2020 16:00:00 8,4 3,8 29 16 - - W 1020,7 0,6
17.02.2020 15:00:00 9,7 5,3 37 20 - - W 1020,0 0,4
17.02.2020 14:00:00 10,4 3,7 42 23 - - W 1019,4 0,2
17.02.2020 13:00:00 10,2 3,0 42 23 - - W 1019,1 0,0
17.02.2020 12:00:00 9,3 4,7 40 22 - - WNW 1018,4 0,2
17.02.2020 11:00:00 9,6 2,4 40 22 67 36 W 1017,6 0,0
17.02.2020 10:00:00 9,3 2,8 41 22 67 36 W 1016,3 0,0
17.02.2020 09:00:00 8,4 3,8 31 17 67 36 W 1015,4 0,0
17.02.2020 08:00:00 7,3 3,0 29 16 80 43 W 1014,5 0,6
17.02.2020 07:00:00 7,5 3,2 37 20 63 34 W 1014,1 0,0
17.02.2020 06:00:00 8,9 2,7 34 18 59 32 W 1012,9 0,0
17.02.2020 05:00:00 8,8 3,8 37 20 67 36 W 1013,0 0,0
17.02.2020 04:00:00 8,1 3,2 36 19 63 34 W 1013,3 0,0
17.02.2020 03:00:00 8,0 3,1 25 14 63 34 WSW 1013,4 0,0
17.02.2020 02:00:00 8,7 3,3 26 14 48 26 WSW 1013,2 0,0
17.02.2020 01:00:00 9,0 1,9 23 13 44 24 WSW 1013,0 0,0
17.02.2020 00:00:00 9,2 2,1 25 13 - - W 1012,7 0,0
16.02.2020 23:00:00 9,2 2,3 27 15 - - W 1012,2 0,0
16.02.2020 22:00:00 9,3 2,4 30 16 - - W 1011,3 0,0
16.02.2020 21:00:00 9,2 2,3 29 15 - - W 1010,5 0,0
16.02.2020 20:00:00 9,3 2,8 29 16 - - W 1009,7 0,0
16.02.2020 19:00:00 9,5 3,7 36 20 - - W 1008,1 0,0
16.02.2020 18:00:00 9,0 5,6 34 18 - - W 1006,7 0,0
16.02.2020 17:00:00 7,9 6,0 42 23 - - W 1005,7 0,8
16.02.2020 16:00:00 9,1 6,7 26 14 - - WSW 1004,6 0,0
16.02.2020 15:00:00 8,6 7,2 24 13 - - W 1003,3 0,2
16.02.2020 14:00:00 8,2 7,1 42 23 - - WNW 1002,9 1,2
16.02.2020 13:00:00 9,3 8,7 39 21 - - WNW 1000,7 -
16.02.2020 12:00:00 13,0 12,2 56 30 - - SW 997,5 -
16.02.2020 11:00:00 12,8 12,0 53 29 - - SW 998,1 -
16.02.2020 10:00:00 12,8 11,9 53 29 - - SW 998,3 -
16.02.2020 09:00:00 12,7 11,8 50 27 - - SW 999,0 -
16.02.2020 08:00:00 12,9 12,0 49 27 - - SW 999,4 -
16.02.2020 07:00:00 13,0 12,1 52 28 - - SW 999,7 -
16.02.2020 06:00:00 13,2 12,1 57 31 - - SW 999,7 -
16.02.2020 05:00:00 13,6 11,6 56 30 - - SW 1000,3 -
16.02.2020 04:00:00 13,4 11,8 58 32 - - SW 1000,8 -
16.02.2020 03:00:00 13,4 11,8 48 26 - - SW 1001,5 -
16.02.2020 02:00:00 13,3 11,7 55 30 - - SW 1002,1 -
16.02.2020 01:00:00 13,2 11,6 51 28 - - SW 1002,5 -
16.02.2020 00:00:00 13,1 11,5 50 27 - - SW 1003,4 -
15.02.2020 23:00:00 12,9 11,3 48 26 - - SW 1004,1 -
15.02.2020 22:00:00 12,9 11,6 48 26 - - SW 1004,7 -
15.02.2020 21:00:00 12,8 11,7 49 27 - - SW 1005,3 -
15.02.2020 20:00:00 12,7 11,6 51 27 - - SW 1005,8 -
15.02.2020 19:00:00 12,7 11,6 47 26 - - SW 1005,8 -
15.02.2020 18:00:00 12,6 11,5 50 27 - - SW 1005,4 -
15.02.2020 17:00:00 12,5 10,9 50 27 - - SW 1005,5 -
15.02.2020 16:00:00 12,3 11,8 48 26 - - SW 1005,9 -
15.02.2020 15:00:00 12,5 11,6 47 25 - - SW 1007,0 -
15.02.2020 14:00:00 12,4 11,3 45 24 - - SW 1007,5 -
15.02.2020 13:00:00 12,8 11,4 50 27 - - SW 1009,1 -
15.02.2020 12:00:00 12,8 11,2 49 27 - - SW 1009,7 -
15.02.2020 11:00:00 12,6 11,0 45 25 - - SW 1010,4 -
15.02.2020 10:00:00 12,5 11,1 40 21 - - SW 1011,4 -
15.02.2020 09:00:00 12,4 11,1 40 22 - - SW 1012,2 -
15.02.2020 08:00:00 12,2 11,3 37 20 - - SW 1012,5 -
15.02.2020 07:00:00 12,1 11,2 36 19 - - SW 1013,2 -
15.02.2020 06:00:00 12,0 10,7 37 20 - - SW 1013,3 -
15.02.2020 05:00:00 12,2 11,3 35 19 - - SW 1014,5 -
15.02.2020 04:00:00 12,3 11,4 35 19 - - SW 1015,2 -
15.02.2020 03:00:00 12,2 11,6 31 17 - - SW 1015,9 -
15.02.2020 02:00:00 12,1 11,3 27 15 - - SW 1016,7 -
15.02.2020 01:00:00 12,3 11,2 30 16 - - SW 1016,7 -
15.02.2020 00:00:00 12,2 11,3 30 16 - - SW 1017,0 -
14.02.2020 23:00:00 12,3 11,4 29 16 - - SW 1017,5 -
14.02.2020 22:00:00 12,3 11,2 31 17 - - SW 1018,1 -
14.02.2020 21:00:00 12,2 11,1 28 15 - - SW 1018,4 -
14.02.2020 20:00:00 12,2 11,3 27 15 - - SW 1018,7 -
14.02.2020 19:00:00 12,0 11,2 26 14 - - SW 1018,8 -
14.02.2020 18:00:00 11,9 11,1 29 16 - - SW 1018,6 -
14.02.2020 17:00:00 12,1 11,0 26 14 - - SW 1018,9 -
14.02.2020 16:00:00 11,9 10,6 27 15 - - SW 1019,1 -
14.02.2020 15:00:00 12,1 10,3 28 15 - - SW 1019,3 -
14.02.2020 14:00:00 11,9 10,1 24 13 - - SSW 1019,7 -
14.02.2020 13:00:00 11,6 9,2 24 13 - - SSW 1020,4 -
14.02.2020 12:00:00 11,6 8,4 27 14 - - SSW 1020,0 -
14.02.2020 11:00:00 11,5 8,0 28 15 - - SW 1020,3 -
14.02.2020 10:00:00 - - - - - - - - -
14.02.2020 09:00:00 10,0 8,1 23 13 - - SW 1020,6 -
14.02.2020 08:00:00 9,5 7,4 21 11 - - SW 1019,6 -
14.02.2020 07:00:00 9,3 7,6 19 10 - - SW 1019,7 -
14.02.2020 06:00:00 8,5 6,8 15 8 - - SW 1019,2 -
14.02.2020 05:00:00 8,9 6,9 16 8 - - WSW 1019,2 -
14.02.2020 04:00:00 8,7 6,8 12 7 - - WSW 1019,1 -
14.02.2020 03:00:00 9,5 7,8 18 10 - - W 1019,1 -
14.02.2020 02:00:00 9,8 8,1 20 11 - - W 1019,3 -
14.02.2020 01:00:00 10,1 8,0 22 12 - - W 1018,7 -
14.02.2020 00:00:00 10,0 7,1 24 13 - - WNW 1018,4 -
13.02.2020 23:00:00 10,3 7,2 24 13 - - WNW 1017,9 -
13.02.2020 22:00:00 10,4 6,9 34 18 - - WNW 1017,0 -
13.02.2020 21:00:00 10,3 7,5 30 16 - - NW 1015,9 -
13.02.2020 20:00:00 10,2 8,0 32 18 - - WNW 1014,5 -
13.02.2020 19:00:00 10,4 6,9 35 19 - - WNW 1013,1 0,0
13.02.2020 18:00:00 10,4 7,1 37 20 - - WNW 1011,7 0,0
13.02.2020 17:00:00 10,7 7,4 46 25 - - WNW 1009,8 0,2
13.02.2020 16:00:00 11,1 7,0 45 25 - - WNW 1007,8 0,0
13.02.2020 15:00:00 11,1 8,0 47 25 - - WNW 1006,5 0,2
13.02.2020 14:00:00 10,5 8,1 53 29 - - WNW 1005,4 0,0
13.02.2020 13:00:00 10,6 8,2 64 35 - - W 1003,8 0,0
13.02.2020 12:00:00 10,8 7,7 64 35 - - W 1002,3 0,0
13.02.2020 11:00:00 10,5 6,6 64 34 - - W 1001,3 0,4
13.02.2020 10:00:00 10,6 5,6 62 34 - - W 1000,9 0,0
13.02.2020 09:00:00 10,2 5,4 56 30 - - W 1000,8 0,2
13.02.2020 08:00:00 10,3 5,5 53 29 - - W 1000,7 0,0
13.02.2020 07:00:00 10,1 5,5 47 25 - - W 1000,9 0,0
13.02.2020 06:00:00 10,1 6,1 48 26 - - W 1001,3 0,0
13.02.2020 05:00:00 10,6 7,7 41 22 - - W 1000,8 0,4
13.02.2020 04:00:00 11,4 10,8 47 26 - - WSW 1000,7 0,6
13.02.2020 03:00:00 11,2 10,9 43 23 - - SW 1002,1 1,0
13.02.2020 02:00:00 10,3 9,8 40 22 - - SSW 1003,6 3,0
13.02.2020 01:00:00 9,8 8,7 37 20 - - SSW 1005,7 0,8
13.02.2020 00:00:00 9,6 8,0 31 17 - - SSW 1007,9 0,2
12.02.2020 23:00:00 9,6 7,4 26 14 - - SSW 1010,3 0,0
12.02.2020 22:00:00 9,3 6,7 21 11 - - SSW 1012,5 0,0
12.02.2020 21:00:00 9,1 5,8 22 12 - - SW 1013,8 0,0
12.02.2020 20:00:00 9,0 6,4 18 10 - - SW 1015,1 0,0
12.02.2020 19:00:00 8,6 6,6 16 8 - - SW 1015,8 0,0
12.02.2020 18:00:00 9,2 5,9 23 12 - - SW 1016,4 0,2
12.02.2020 17:00:00 9,6 6,7 23 13 - - SW 1017,4 0,0
12.02.2020 16:00:00 10,2 6,2 26 14 - - WSW 1018,3 0,0
12.02.2020 15:00:00 10,2 6,2 27 14 - - WSW 1019,1 0,0
12.02.2020 14:00:00 10,3 5,5 24 13 - - SW 1019,7 0,0
12.02.2020 13:00:00 10,4 6,3 21 12 - - WSW 1021,1 0,0
12.02.2020 12:00:00 9,9 5,3 23 12 - - WSW 1021,6 0,0
12.02.2020 11:00:00 9,3 5,1 20 11 - - W 1021,7 0,0
12.02.2020 10:00:00 9,2 5,0 17 9 - - W 1021,7 0,0
12.02.2020 09:00:00 7,8 4,0 19 10 - - W 1021,7 0,0
12.02.2020 08:00:00 7,4 4,9 16 9 - - W 1021,5 0,0
12.02.2020 07:00:00 7,5 5,0 20 11 - - W 1021,2 0,0
12.02.2020 06:00:00 7,2 4,8 26 14 - - WNW 1021,5 0,4
12.02.2020 05:00:00 7,5 4,1 29 16 - - WNW 1021,3 0,0
12.02.2020 04:00:00 8,0 4,6 27 14 - - W 1021,2 0,0
12.02.2020 03:00:00 7,3 4,1 33 18 - - W 1021,5 0,2
12.02.2020 02:00:00 7,9 4,5 36 19 - - W 1021,7 0,0
12.02.2020 01:00:00 7,7 4,1 23 12 - - W 1021,6 0,0
12.02.2020 00:00:00 7,7 3,0 33 18 - - WNW 1021,7 0,0
11.02.2020 23:00:00 7,4 3,6 26 14 - - WNW 1021,8 0,0
11.02.2020 22:00:00 7,6 2,9 29 15 - - WNW 1022,0 0,0
11.02.2020 21:00:00 6,8 3,8 23 13 - - W 1022,1 0,4

tt = Température de l'air
td = dewpoint
ff = Vitesse du vent
fx = gusts
dd = Direction du vent
ppp = reduced air pressure
rr = Quantités de précipitations

stations d'obs. à proximité